createdAt,value
2019-04-11T00:00:33.766Z,6.90
2019-04-11T00:01:47.788Z,6.90
2019-04-11T00:02:49.041Z,6.90
2019-04-11T00:03:53.562Z,6.90
2019-04-11T00:04:58.756Z,6.90
2019-04-11T00:06:03.380Z,6.90
2019-04-11T00:07:08.139Z,6.80
2019-04-11T00:08:12.339Z,6.80
2019-04-11T00:09:18.652Z,6.80
2019-04-11T00:10:23.119Z,6.80
2019-04-11T00:11:28.149Z,6.80
2019-04-11T00:12:32.640Z,6.80
2019-04-11T00:13:36.942Z,6.80
2019-04-11T00:14:42.089Z,6.80
2019-04-11T00:15:46.409Z,6.80
2019-04-11T00:16:50.613Z,6.80
2019-04-11T00:17:54.847Z,6.80
2019-04-11T00:18:59.051Z,6.80
2019-04-11T00:20:04.226Z,6.80
2019-04-11T00:21:08.764Z,6.80
2019-04-11T00:22:13.200Z,6.80
2019-04-11T00:23:18.362Z,6.70
2019-04-11T00:24:22.901Z,6.70
2019-04-11T00:25:27.521Z,6.70
2019-04-11T00:26:32.748Z,6.70
2019-04-11T00:27:37.238Z,6.70
2019-04-11T00:28:41.707Z,6.70
2019-04-11T00:29:46.993Z,6.60
2019-04-11T00:30:52.440Z,6.60
2019-04-11T00:31:57.001Z,6.60
2019-04-11T00:33:02.206Z,6.60
2019-04-11T00:34:06.851Z,6.60
2019-04-11T00:35:11.210Z,6.60
2019-04-11T00:36:16.518Z,6.60
2019-04-11T00:37:21.094Z,6.60
2019-04-11T00:38:25.686Z,6.60
2019-04-11T00:39:30.019Z,6.60
2019-04-11T00:40:35.358Z,6.50
2019-04-11T00:41:39.792Z,6.60
2019-04-11T00:42:45.040Z,6.60
2019-04-11T00:43:50.387Z,6.50
2019-04-11T00:44:54.962Z,6.50
2019-04-11T00:46:00.159Z,6.50
2019-04-11T00:47:05.188Z,6.50
2019-04-11T00:48:09.409Z,6.50
2019-04-11T00:49:14.415Z,6.50
2019-04-11T00:50:19.080Z,6.50
2019-04-11T00:51:23.616Z,6.50
2019-04-11T00:52:27.879Z,6.50
2019-04-11T00:53:32.084Z,6.50
2019-04-11T00:54:36.321Z,6.40
2019-04-11T00:55:41.763Z,6.50
2019-04-11T00:56:46.032Z,6.40
2019-04-11T00:57:50.232Z,6.40
2019-04-11T00:58:54.479Z,6.40
2019-04-11T00:59:58.686Z,6.40
2019-04-11T01:01:03.747Z,6.40
2019-04-11T01:02:09.332Z,6.40
2019-04-11T01:03:13.814Z,6.40
2019-04-11T01:04:18.145Z,6.40
2019-04-11T01:05:23.468Z,6.40
2019-04-11T01:06:28.031Z,6.30
2019-04-11T01:07:33.186Z,6.30
2019-04-11T01:08:37.810Z,6.30
2019-04-11T01:09:42.309Z,6.30
2019-04-11T01:10:47.688Z,6.30
2019-04-11T01:11:52.172Z,6.30
2019-04-11T01:12:56.697Z,6.30
2019-04-11T01:14:01.586Z,6.30
2019-04-11T01:15:07.321Z,6.30
2019-04-11T01:16:34.784Z,6.30
2019-04-11T01:17:39.256Z,6.30
2019-04-11T01:18:44.384Z,6.30
2019-04-11T01:19:49.053Z,6.20
2019-04-11T01:20:53.678Z,6.20
2019-04-11T01:21:59.175Z,6.20
2019-04-11T01:23:04.763Z,6.20
2019-04-11T01:24:09.287Z,6.20
2019-04-11T01:25:14.665Z,6.20
2019-04-11T01:26:19.169Z,6.20
2019-04-11T01:27:23.711Z,6.20
2019-04-11T01:28:28.906Z,6.20
2019-04-11T01:29:33.562Z,6.10
2019-04-11T01:30:45.122Z,6.10
2019-04-11T01:31:53.835Z,6.10
2019-04-11T01:32:58.985Z,6.10
2019-04-11T01:34:04.345Z,6.10
2019-04-11T01:35:08.912Z,6.10
2019-04-11T01:36:13.753Z,6.10
2019-04-11T01:37:18.049Z,6.10
2019-04-11T01:38:23.720Z,6.10
2019-04-11T01:39:47.390Z,6.00
2019-04-11T01:40:51.963Z,6.00
2019-04-11T01:41:56.220Z,6.00
2019-04-11T01:43:00.427Z,6.00
2019-04-11T01:44:07.100Z,6.00
2019-04-11T01:45:11.455Z,6.00
2019-04-11T01:46:16.103Z,6.00
2019-04-11T01:47:39.257Z,6.00
2019-04-11T01:48:57.885Z,6.00
2019-04-11T01:50:03.082Z,6.00
2019-04-11T01:51:07.542Z,6.00
2019-04-11T01:52:11.949Z,6.00
2019-04-11T01:53:17.107Z,5.90
2019-04-11T01:54:21.779Z,5.90
2019-04-11T01:55:26.250Z,5.90
2019-04-11T01:56:31.461Z,5.90
2019-04-11T01:57:36.145Z,5.90
2019-04-11T01:58:40.613Z,5.90
2019-04-11T01:59:45.817Z,5.90
2019-04-11T02:01:18.843Z,5.80
2019-04-11T02:02:38.911Z,5.80
2019-04-11T02:03:55.938Z,5.80
2019-04-11T02:05:10.425Z,5.80
2019-04-11T02:06:15.909Z,5.80
2019-04-11T02:07:20.614Z,5.80
2019-04-11T02:08:25.049Z,5.80
2019-04-11T02:09:30.319Z,5.80
2019-04-11T02:10:35.047Z,5.80
2019-04-11T02:11:39.497Z,5.70
2019-04-11T02:12:43.729Z,5.70
2019-04-11T02:13:48.213Z,5.70
2019-04-11T02:14:52.454Z,5.70
2019-04-11T02:15:58.347Z,5.70
2019-04-11T02:17:02.636Z,5.70
2019-04-11T02:18:07.579Z,5.70
2019-04-11T02:19:12.141Z,5.70
2019-04-11T02:20:16.635Z,5.70
2019-04-11T02:21:21.854Z,5.70
2019-04-11T02:22:35.863Z,5.70
2019-04-11T02:23:51.028Z,5.70
2019-04-11T02:25:03.888Z,5.70
2019-04-11T02:26:27.260Z,5.60
2019-04-11T02:27:32.685Z,5.60
2019-04-11T02:28:37.050Z,5.60
2019-04-11T02:29:41.217Z,5.60
2019-04-11T02:30:48.549Z,5.50
2019-04-11T02:31:53.541Z,5.60
2019-04-11T02:33:00.241Z,5.60
2019-04-11T02:34:06.479Z,5.50
2019-04-11T02:35:11.151Z,5.60
2019-04-11T02:36:16.656Z,5.50
2019-04-11T02:37:21.959Z,5.50
2019-04-11T02:38:28.299Z,5.50
2019-04-11T02:39:33.800Z,5.50
2019-04-11T02:40:38.753Z,5.50
2019-04-11T02:41:44.548Z,5.50
2019-04-11T02:42:49.859Z,5.50
2019-04-11T02:43:55.001Z,5.50
2019-04-11T02:45:13.197Z,5.50
2019-04-11T02:46:16.857Z,5.50
2019-04-11T02:47:16.227Z,5.40
2019-04-11T02:48:18.352Z,5.50
2019-04-11T02:49:23.750Z,5.40
2019-04-11T02:50:29.969Z,5.40
2019-04-11T02:51:34.603Z,5.40
2019-04-11T02:52:40.119Z,5.40
2019-04-11T02:53:45.245Z,5.40
2019-04-11T02:54:49.499Z,5.40
2019-04-11T02:55:54.211Z,5.40
2019-04-11T02:57:00.066Z,5.40
2019-04-11T02:58:06.248Z,5.40
2019-04-11T02:59:11.294Z,5.40
2019-04-11T03:00:15.955Z,5.40
2019-04-11T03:01:21.987Z,5.40
2019-04-11T03:02:26.835Z,5.30
2019-04-11T03:03:32.011Z,5.30
2019-04-11T03:04:37.163Z,5.30
2019-04-11T03:05:41.909Z,5.30
2019-04-11T03:06:47.903Z,5.30
2019-04-11T03:07:53.992Z,5.30
2019-04-11T03:08:59.339Z,5.30
2019-04-11T03:10:04.943Z,5.30
2019-04-11T03:11:10.611Z,5.30
2019-04-11T03:12:15.504Z,5.20
2019-04-11T03:13:21.072Z,5.20
2019-04-11T03:14:25.448Z,5.20
2019-04-11T03:15:43.355Z,5.20
2019-04-11T03:16:49.304Z,5.20
2019-04-11T03:17:44.550Z,5.20
2019-04-11T03:19:08.586Z,5.20
2019-04-11T03:20:04.357Z,5.20
2019-04-11T03:21:04.605Z,5.20
2019-04-11T03:22:05.561Z,5.20
2019-04-11T03:23:13.841Z,5.20
2019-04-11T03:24:17.455Z,5.10
2019-04-11T03:25:22.536Z,5.10
2019-04-11T03:26:27.082Z,5.20
2019-04-11T03:27:32.532Z,5.10
2019-04-11T03:28:40.233Z,5.10
2019-04-11T03:29:43.186Z,5.10
2019-04-11T03:31:15.827Z,5.10
2019-04-11T03:35:03.071Z,5.10
2019-04-11T03:37:44.574Z,5.00
2019-04-11T03:38:46.503Z,5.00
2019-04-11T03:39:57.231Z,5.00
2019-04-11T03:40:57.026Z,5.00
2019-04-11T03:42:04.823Z,5.00
2019-04-11T03:43:06.443Z,5.00
2019-04-11T03:44:07.855Z,5.00
2019-04-11T03:45:29.021Z,5.00
2019-04-11T03:46:25.076Z,4.90
2019-04-11T03:47:27.864Z,4.90
2019-04-11T03:48:35.548Z,4.90
2019-04-11T03:49:35.604Z,4.90
2019-04-11T03:50:34.819Z,4.90
2019-04-11T03:51:41.402Z,4.90
2019-04-11T03:52:45.267Z,4.90
2019-04-11T03:53:51.396Z,4.90
2019-04-11T03:54:56.244Z,4.90
2019-04-11T03:56:01.644Z,4.90
2019-04-11T03:57:07.848Z,4.80
2019-04-11T03:58:13.212Z,4.90
2019-04-11T03:59:19.564Z,4.90
2019-04-11T04:00:25.681Z,4.80
2019-04-11T04:01:29.736Z,4.80
2019-04-11T04:02:34.848Z,4.80
2019-04-11T04:03:39.387Z,4.80
2019-04-11T04:04:45.175Z,4.80
2019-04-11T04:05:50.642Z,4.80
2019-04-11T04:06:55.408Z,4.80
2019-04-11T04:08:01.740Z,4.80
2019-04-11T04:09:06.788Z,4.80
2019-04-11T04:10:13.202Z,4.80
2019-04-11T04:11:27.307Z,4.80
2019-04-11T04:12:31.441Z,4.70
2019-04-11T04:13:37.474Z,4.70
2019-04-11T04:15:09.126Z,4.70
2019-04-11T04:16:26.141Z,4.70
2019-04-11T04:17:47.669Z,4.60
2019-04-11T04:19:01.589Z,4.70
2019-04-11T04:20:24.757Z,4.60
2019-04-11T04:21:40.840Z,4.60
2019-04-11T04:23:05.269Z,4.60
2019-04-11T04:24:32.784Z,4.60
2019-04-11T04:25:36.742Z,4.60
2019-04-11T04:26:41.267Z,4.50
2019-04-11T04:27:46.842Z,4.50
2019-04-11T04:28:51.393Z,4.50
2019-04-11T04:29:58.513Z,4.50
2019-04-11T04:31:02.086Z,4.50
2019-04-11T04:32:08.186Z,4.50
2019-04-11T04:33:12.963Z,4.50
2019-04-11T04:34:19.585Z,4.50
2019-04-11T04:35:25.683Z,4.50
2019-04-11T04:36:30.906Z,4.50
2019-04-11T04:37:35.496Z,4.50
2019-04-11T04:38:41.473Z,4.50
2019-04-11T04:39:45.716Z,4.50
2019-04-11T04:41:05.968Z,4.50
2019-04-11T04:42:03.674Z,4.40
2019-04-11T04:43:04.973Z,4.40
2019-04-11T04:44:08.543Z,4.40
2019-04-11T04:45:15.690Z,4.50
2019-04-11T04:46:35.082Z,4.40
2019-04-11T04:47:37.124Z,4.40
2019-04-11T04:48:32.188Z,4.40
2019-04-11T04:49:38.639Z,4.40
2019-04-11T04:50:44.622Z,4.40
2019-04-11T04:51:48.524Z,4.40
2019-04-11T04:52:53.563Z,4.40
2019-04-11T04:53:59.880Z,4.40
2019-04-11T04:55:06.068Z,4.40
2019-04-11T04:56:11.086Z,4.40
2019-04-11T04:57:15.552Z,4.40
2019-04-11T04:58:20.783Z,4.40
2019-04-11T04:59:25.770Z,4.40
2019-04-11T05:00:31.885Z,4.50
2019-04-11T05:01:37.347Z,4.50
2019-04-11T05:02:43.765Z,4.50
2019-04-11T05:03:48.738Z,4.50
2019-04-11T05:04:54.305Z,4.50
2019-04-11T05:06:00.812Z,4.50
2019-04-11T05:07:05.299Z,4.50
2019-04-11T05:08:10.726Z,4.50
2019-04-11T05:09:15.364Z,4.50
2019-04-11T05:10:20.035Z,4.60
2019-04-11T05:11:26.094Z,4.60
2019-04-11T05:12:30.359Z,4.60
2019-04-11T05:13:34.742Z,4.60
2019-04-11T05:14:40.852Z,4.60
2019-04-11T05:15:45.410Z,4.60
2019-04-11T05:16:50.436Z,4.60
2019-04-11T05:17:54.887Z,4.70
2019-04-11T05:18:59.467Z,4.70
2019-04-11T05:20:05.072Z,4.70
2019-04-11T05:21:09.270Z,4.70
2019-04-11T05:22:14.633Z,4.80
2019-04-11T05:23:18.884Z,4.80
2019-04-11T05:24:23.114Z,4.80
2019-04-11T05:25:28.565Z,4.90
2019-04-11T05:26:33.345Z,4.90
2019-04-11T05:27:37.883Z,5.00
2019-04-11T05:28:42.253Z,5.00
2019-04-11T05:29:46.426Z,5.10
2019-04-11T05:30:51.262Z,5.10
2019-04-11T05:31:56.667Z,5.10
2019-04-11T05:33:01.808Z,5.20
2019-04-11T05:34:06.164Z,5.30
2019-04-11T05:35:11.076Z,5.30
2019-04-11T05:36:16.465Z,5.30
2019-04-11T05:37:20.865Z,5.40
2019-04-11T05:38:25.334Z,5.40
2019-04-11T05:39:29.812Z,5.50
2019-04-11T05:40:34.668Z,5.50
2019-04-11T05:41:42.046Z,5.60
2019-04-11T05:42:45.170Z,5.60
2019-04-11T05:43:49.468Z,5.60
2019-04-11T05:44:54.704Z,5.60
2019-04-11T05:46:00.166Z,5.70
2019-04-11T05:47:06.514Z,5.70
2019-04-11T05:48:15.679Z,5.80
2019-04-11T05:49:26.320Z,5.80
2019-04-11T05:50:33.981Z,5.80
2019-04-11T05:51:42.575Z,5.90
2019-04-11T05:52:44.521Z,5.90
2019-04-11T05:53:51.318Z,5.90
2019-04-11T05:54:58.458Z,6.00
2019-04-11T05:56:03.794Z,6.00
2019-04-11T05:57:09.004Z,6.00
2019-04-11T05:58:14.436Z,6.00
2019-04-11T05:59:23.878Z,6.10
2019-04-11T06:00:59.677Z,6.10
2019-04-11T06:02:10.995Z,6.30
2019-04-11T06:03:15.563Z,6.40
2019-04-11T06:04:28.476Z,6.50
2019-04-11T06:05:39.189Z,6.60
2019-04-11T06:07:07.847Z,6.70
2019-04-11T06:08:21.129Z,6.90
2019-04-11T06:09:24.147Z,7.00
2019-04-11T06:11:01.421Z,7.20
2019-04-11T06:12:23.358Z,7.40
2019-04-11T06:13:49.616Z,7.90
2019-04-11T06:15:13.547Z,8.60
2019-04-11T06:16:18.808Z,9.40
2019-04-11T06:17:24.219Z,10.30
2019-04-11T06:18:57.719Z,10.90
2019-04-11T06:20:22.057Z,11.20
2019-04-11T06:21:30.057Z,11.80
2019-04-11T06:22:36.226Z,12.80
2019-04-11T06:24:08.453Z,13.40
2019-04-11T06:25:38.161Z,14.00
2019-04-11T06:26:49.600Z,14.90
2019-04-11T06:28:02.030Z,15.70
2019-04-11T06:29:17.403Z,16.00
2019-04-11T06:30:40.144Z,16.30
2019-04-11T06:32:07.683Z,16.50
2019-04-11T06:33:18.881Z,16.40
2019-04-11T06:34:25.528Z,16.30
2019-04-11T06:35:48.615Z,16.40
2019-04-11T06:37:11.868Z,16.70
2019-04-11T06:38:34.378Z,16.90
2019-04-11T06:39:43.359Z,17.10
2019-04-11T06:41:10.284Z,16.90
2019-04-11T06:42:35.430Z,16.60
2019-04-11T06:43:45.442Z,16.10
2019-04-11T06:45:09.343Z,16.00
2019-04-11T06:46:27.540Z,16.20
2019-04-11T06:47:59.709Z,16.60
2019-04-11T06:49:09.845Z,17.00
2019-04-11T06:50:39.644Z,17.00
2019-04-11T06:51:48.390Z,17.30
2019-04-11T06:52:53.026Z,18.00
2019-04-11T06:54:25.240Z,18.30
2019-04-11T06:55:48.419Z,18.40
2019-04-11T06:56:53.728Z,18.50
2019-04-11T06:58:02.983Z,18.60
2019-04-11T06:59:12.177Z,18.80
2019-04-11T07:00:17.101Z,18.80
2019-04-11T07:01:24.272Z,18.60
2019-04-11T07:02:29.980Z,18.10
2019-04-11T07:03:38.933Z,17.90
2019-04-11T07:05:04.543Z,17.80
2019-04-11T07:06:18.101Z,17.40
2019-04-11T07:07:26.135Z,17.10
2019-04-11T07:08:34.336Z,17.00
2019-04-11T07:09:55.988Z,16.90
2019-04-11T07:11:04.269Z,16.80
2019-04-11T07:12:13.379Z,17.00
2019-04-11T07:13:22.786Z,17.40
2019-04-11T07:14:33.256Z,17.70
2019-04-11T07:15:41.048Z,17.90
2019-04-11T07:17:07.368Z,17.80
2019-04-11T07:18:28.969Z,17.80
2019-04-11T07:20:04.619Z,17.90
2019-04-11T07:21:10.718Z,18.10
2019-04-11T07:22:34.795Z,18.50
2019-04-11T07:23:57.584Z,18.70
2019-04-11T07:25:20.280Z,19.00
2019-04-11T07:26:58.951Z,19.50
2019-04-11T07:28:10.847Z,20.20
2019-04-11T07:29:52.209Z,20.90
2019-04-11T07:31:14.701Z,21.20
2019-04-11T07:32:20.674Z,21.70
2019-04-11T07:33:39.353Z,22.20
2019-04-11T07:35:02.297Z,22.50
2019-04-11T07:36:24.499Z,22.90
2019-04-11T07:38:00.975Z,23.00
2019-04-11T07:39:20.083Z,22.70
2019-04-11T07:40:43.034Z,22.20
2019-04-11T07:42:13.710Z,21.90
2019-04-11T07:43:20.283Z,21.60
2019-04-11T07:44:27.540Z,20.90
2019-04-11T07:45:39.172Z,20.90
2019-04-11T07:46:53.684Z,21.00
2019-04-11T07:48:08.665Z,21.30
2019-04-11T07:49:13.025Z,21.80
2019-04-11T07:50:19.518Z,22.30
2019-04-11T07:51:28.007Z,22.50
2019-04-11T07:52:36.069Z,22.70
2019-04-11T07:53:43.729Z,22.80
2019-04-11T07:54:48.016Z,22.90
2019-04-11T07:55:53.143Z,23.10
2019-04-11T07:57:19.519Z,23.50
2019-04-11T07:58:30.828Z,23.90
2019-04-11T08:00:00.189Z,24.10
2019-04-11T08:01:30.543Z,24.40
2019-04-11T08:02:53.229Z,24.60
2019-04-11T08:04:15.052Z,24.70
2019-04-11T08:05:54.432Z,25.10
2019-04-11T08:07:20.323Z,25.60
2019-04-11T08:08:43.621Z,26.00
2019-04-11T08:09:52.797Z,26.30
2019-04-11T08:11:07.200Z,26.60
2019-04-11T08:12:23.554Z,26.90
2019-04-11T08:13:44.819Z,27.00
2019-04-11T08:15:11.293Z,27.50
2019-04-11T08:16:40.328Z,28.20
2019-04-11T08:17:45.992Z,28.60
2019-04-11T08:19:13.159Z,29.20
2019-04-11T08:20:39.544Z,29.60
2019-04-11T08:22:08.599Z,30.20
2019-04-11T08:23:13.785Z,30.60
2019-04-11T08:24:26.858Z,31.10
2019-04-11T08:25:49.320Z,31.00
2019-04-11T08:27:11.442Z,31.30
2019-04-11T08:28:16.481Z,31.40
2019-04-11T08:29:22.204Z,31.50
2019-04-11T08:30:31.200Z,31.50
2019-04-11T08:31:57.662Z,31.60
2019-04-11T08:33:02.834Z,31.90
2019-04-11T08:34:08.270Z,32.00
2019-04-11T08:35:33.199Z,32.20
2019-04-11T08:36:54.936Z,32.40
2019-04-11T08:38:04.941Z,32.50
2019-04-11T08:39:15.817Z,32.80
2019-04-11T08:40:20.395Z,33.30
2019-04-11T08:41:56.975Z,33.60
2019-04-11T08:43:10.815Z,33.70
2019-04-11T08:44:21.627Z,32.90
2019-04-11T08:45:26.913Z,32.90
2019-04-11T08:46:35.144Z,33.00
2019-04-11T08:47:51.261Z,32.80
2019-04-11T08:48:54.045Z,32.40
2019-04-11T08:49:58.839Z,32.30
2019-04-11T08:51:05.637Z,32.30
2019-04-11T08:52:18.307Z,32.60
2019-04-11T08:53:47.486Z,33.10
2019-04-11T08:55:04.222Z,33.70
2019-04-11T08:56:08.669Z,34.20
2019-04-11T08:57:13.765Z,34.50
2019-04-11T08:58:28.825Z,34.80
2019-04-11T08:59:58.779Z,35.00
2019-04-11T09:01:05.486Z,34.80
2019-04-11T09:02:10.736Z,34.70
2019-04-11T09:03:22.172Z,34.50
2019-04-11T09:05:04.981Z,34.30
2019-04-11T09:06:19.324Z,34.40
2019-04-11T09:07:27.796Z,34.80
2019-04-11T09:08:54.450Z,34.50
2019-04-11T09:10:17.830Z,34.10
2019-04-11T09:11:48.828Z,33.90
2019-04-11T09:13:07.059Z,34.10
2019-04-11T09:14:26.430Z,34.80
2019-04-11T09:15:48.831Z,34.90
2019-04-11T09:16:56.322Z,34.70
2019-04-11T09:18:09.161Z,34.10
2019-04-11T09:19:18.909Z,33.00
2019-04-11T09:20:47.885Z,33.50
2019-04-11T09:22:10.919Z,33.90
2019-04-11T09:23:18.098Z,34.40
2019-04-11T09:24:36.696Z,35.00
2019-04-11T09:26:00.004Z,35.40
2019-04-11T09:27:23.305Z,35.80
2019-04-11T09:28:40.239Z,35.10
2019-04-11T09:29:48.641Z,33.40
2019-04-11T09:31:21.233Z,32.00
2019-04-11T09:32:48.669Z,31.20
2019-04-11T09:34:01.528Z,31.00
2019-04-11T09:35:12.627Z,31.60
2019-04-11T09:36:34.684Z,32.10
2019-04-11T09:37:42.911Z,32.50
2019-04-11T09:38:48.722Z,31.80
2019-04-11T09:40:24.428Z,31.30
2019-04-11T09:41:46.857Z,30.50
2019-04-11T09:42:55.655Z,30.60
2019-04-11T09:44:02.307Z,31.20
2019-04-11T09:45:33.896Z,31.70
2019-04-11T09:46:56.781Z,32.20
2019-04-11T09:48:19.872Z,32.50
2019-04-11T09:49:31.460Z,32.80
2019-04-11T09:50:46.924Z,33.30
2019-04-11T09:52:06.032Z,32.70
2019-04-11T09:53:12.117Z,32.40
2019-04-11T09:54:32.447Z,32.10
2019-04-11T09:56:02.835Z,31.90
2019-04-11T09:57:36.484Z,32.50
2019-04-11T09:58:42.047Z,32.80
2019-04-11T09:59:58.214Z,32.50
2019-04-11T10:01:35.079Z,32.60
2019-04-11T10:03:13.506Z,32.50
2019-04-11T10:04:18.852Z,32.80
2019-04-11T10:05:27.288Z,31.60
2019-04-11T10:06:44.588Z,30.90
2019-04-11T10:08:02.196Z,30.30
2019-04-11T10:09:08.872Z,29.80
2019-04-11T10:10:35.251Z,29.20
2019-04-11T10:11:48.500Z,29.20
2019-04-11T10:13:10.825Z,30.40
2019-04-11T10:14:19.664Z,30.90
2019-04-11T10:15:35.587Z,31.70
2019-04-11T10:16:58.192Z,31.80
2019-04-11T10:18:27.754Z,30.60
2019-04-11T10:19:38.642Z,30.60
2019-04-11T10:20:42.872Z,29.70
2019-04-11T10:21:52.364Z,29.20
2019-04-11T10:23:10.445Z,28.00
2019-04-11T10:24:40.845Z,26.80
2019-04-11T10:26:04.499Z,26.20
2019-04-11T10:27:17.566Z,25.20
2019-04-11T10:28:45.968Z,24.00
2019-04-11T10:30:08.635Z,23.60
2019-04-11T10:31:18.081Z,24.20
2019-04-11T10:32:25.432Z,25.20
2019-04-11T10:34:04.591Z,26.10
2019-04-11T10:35:28.827Z,27.10
2019-04-11T10:36:36.966Z,27.40
2019-04-11T10:37:42.425Z,27.60
2019-04-11T10:38:46.955Z,27.80
2019-04-11T10:40:00.075Z,28.10
2019-04-11T10:41:23.595Z,28.30
2019-04-11T10:42:28.778Z,28.50
2019-04-11T10:43:34.215Z,28.30
2019-04-11T10:44:45.761Z,28.30
2019-04-11T10:46:07.193Z,28.20
2019-04-11T10:47:17.589Z,28.10
2019-04-11T10:48:33.768Z,27.70
2019-04-11T10:50:04.069Z,26.90
2019-04-11T10:51:17.431Z,25.90
2019-04-11T10:52:27.058Z,24.80
2019-04-11T10:53:31.604Z,24.10
2019-04-11T10:54:36.699Z,23.30
2019-04-11T10:56:08.889Z,22.90
2019-04-11T10:57:27.779Z,22.70
2019-04-11T10:58:38.965Z,22.90
2019-04-11T10:59:43.215Z,22.90
2019-04-11T11:00:55.673Z,22.80
2019-04-11T11:02:06.739Z,22.70
2019-04-11T11:03:36.110Z,22.40
2019-04-11T11:04:48.447Z,22.10
2019-04-11T11:05:55.518Z,21.80
2019-04-11T11:07:06.489Z,21.50
2019-04-11T11:08:29.808Z,21.50
2019-04-11T11:09:44.446Z,21.40
2019-04-11T11:10:50.029Z,21.40
2019-04-11T11:12:14.376Z,21.00
2019-04-11T11:13:56.352Z,21.00
2019-04-11T11:15:09.094Z,20.80
2019-04-11T11:16:13.939Z,20.30
2019-04-11T11:17:47.183Z,20.20
2019-04-11T11:19:20.905Z,20.20
2019-04-11T11:20:34.114Z,19.90
2019-04-11T11:21:35.264Z,19.40
2019-04-11T11:23:10.946Z,18.70
2019-04-11T11:24:29.547Z,18.50
2019-04-11T11:25:48.330Z,18.50
2019-04-11T11:26:53.568Z,18.60
2019-04-11T11:27:57.915Z,18.60
2019-04-11T11:29:27.087Z,18.60
2019-04-11T11:30:49.566Z,18.60
2019-04-11T11:32:11.331Z,18.70
2019-04-11T11:33:16.250Z,18.70
2019-04-11T11:34:31.020Z,18.70
2019-04-11T11:35:51.959Z,18.50
2019-04-11T11:37:15.848Z,18.40
2019-04-11T11:38:24.052Z,18.30
2019-04-11T11:39:37.390Z,18.30
2019-04-11T11:41:16.348Z,18.40
2019-04-11T11:42:34.744Z,18.10
2019-04-11T11:43:39.129Z,18.00
2019-04-11T11:44:53.019Z,18.00
2019-04-11T11:46:16.087Z,18.00
2019-04-11T11:47:41.211Z,18.10
2019-04-11T11:48:50.836Z,18.10
2019-04-11T11:50:00.114Z,18.10
2019-04-11T11:51:03.306Z,18.00
2019-04-11T11:52:31.907Z,18.10
2019-04-11T11:53:55.538Z,18.10
2019-04-11T11:54:59.889Z,18.20
2019-04-11T11:56:05.387Z,18.40
2019-04-11T11:57:18.352Z,18.50
2019-04-11T11:58:43.547Z,18.60
2019-04-11T11:59:50.455Z,18.70
2019-04-11T12:00:57.364Z,18.90
2019-04-11T12:02:04.885Z,19.00
2019-04-11T12:03:30.720Z,19.20
2019-04-11T12:04:58.154Z,19.30
2019-04-11T12:06:05.311Z,19.30
2019-04-11T12:07:11.130Z,19.20
2019-04-11T12:08:34.969Z,18.90
2019-04-11T12:09:56.967Z,18.50
2019-04-11T12:11:04.019Z,18.30
2019-04-11T12:12:13.601Z,18.20
2019-04-11T12:13:39.419Z,17.80
2019-04-11T12:15:22.348Z,17.70
2019-04-11T12:16:43.874Z,17.70
2019-04-11T12:18:18.467Z,17.80
2019-04-11T12:19:42.665Z,17.90
2019-04-11T12:20:46.096Z,17.70
2019-04-11T12:21:51.726Z,17.50
2019-04-11T12:22:57.353Z,17.50
2019-04-11T12:24:29.621Z,17.60
2019-04-11T12:25:39.516Z,17.60
2019-04-11T12:27:02.679Z,17.80
2019-04-11T12:28:27.594Z,17.80
2019-04-11T12:30:10.725Z,17.90
2019-04-11T12:31:15.568Z,18.20
2019-04-11T12:32:24.269Z,18.20
2019-04-11T12:33:54.009Z,18.30
2019-04-11T12:35:19.967Z,18.40
2019-04-11T12:36:30.872Z,18.40
2019-04-11T12:37:39.887Z,18.40
2019-04-11T12:38:59.095Z,18.40
2019-04-11T12:40:27.364Z,18.50
2019-04-11T12:42:08.908Z,18.40
2019-04-11T12:43:13.331Z,18.30
2019-04-11T12:44:51.781Z,18.10
2019-04-11T12:46:29.988Z,18.20
2019-04-11T12:47:45.119Z,18.20
2019-04-11T12:48:49.350Z,18.20
2019-04-11T12:50:30.804Z,18.00
2019-04-11T12:51:54.048Z,17.80
2019-04-11T12:53:24.311Z,17.60
2019-04-11T12:54:30.041Z,17.70
2019-04-11T12:56:05.708Z,17.80
2019-04-11T12:57:28.869Z,18.00
2019-04-11T12:58:36.961Z,18.10
2019-04-11T12:59:41.280Z,17.90
2019-04-11T13:01:07.089Z,18.00
2019-04-11T13:02:29.194Z,18.00
2019-04-11T13:04:01.435Z,17.90
2019-04-11T13:05:07.020Z,17.90
2019-04-11T13:06:19.216Z,17.90
2019-04-11T13:07:41.350Z,18.00
2019-04-11T13:09:03.952Z,18.00
2019-04-11T13:10:30.707Z,18.10
2019-04-11T13:11:35.840Z,18.00
2019-04-11T13:13:06.140Z,17.70
2019-04-11T13:14:29.362Z,17.70
2019-04-11T13:15:37.095Z,17.90
2019-04-11T13:16:42.407Z,18.00
2019-04-11T13:17:53.135Z,18.00
2019-04-11T13:19:14.884Z,18.00
2019-04-11T13:20:43.260Z,17.90
2019-04-11T13:22:04.391Z,17.50
2019-04-11T13:23:18.982Z,16.80
2019-04-11T13:24:41.180Z,16.30
2019-04-11T13:26:04.360Z,16.10
2019-04-11T13:27:23.209Z,15.90
2019-04-11T13:28:28.017Z,16.00
2019-04-11T13:29:48.606Z,16.10
2019-04-11T13:31:20.731Z,16.20
2019-04-11T13:32:37.461Z,16.50
2019-04-11T13:33:41.683Z,16.60
2019-04-11T13:34:47.000Z,16.50
2019-04-11T13:36:12.916Z,16.50
2019-04-11T13:37:34.732Z,16.40
2019-04-11T13:38:41.719Z,16.40
2019-04-11T13:39:50.743Z,16.40
2019-04-11T13:41:20.640Z,16.50
2019-04-11T13:42:58.411Z,16.60
2019-04-11T13:44:09.703Z,16.70
2019-04-11T13:45:14.404Z,16.80
2019-04-11T13:46:35.146Z,16.70
2019-04-11T13:47:57.096Z,16.60
2019-04-11T13:49:20.266Z,16.50
2019-04-11T13:50:24.599Z,16.50
2019-04-11T13:51:39.891Z,16.50
2019-04-11T13:53:03.052Z,16.20
2019-04-11T13:54:25.002Z,16.00
2019-04-11T13:55:31.467Z,16.10
2019-04-11T13:56:50.770Z,16.10
2019-04-11T13:58:13.948Z,16.00
2019-04-11T13:59:36.077Z,16.20
2019-04-11T14:00:45.228Z,16.40
2019-04-11T14:01:50.053Z,16.60
2019-04-11T14:03:08.017Z,16.50
2019-04-11T14:04:19.451Z,16.30
2019-04-11T14:05:23.708Z,16.00
2019-04-11T14:06:38.208Z,16.00
2019-04-11T14:07:42.855Z,16.10
2019-04-11T14:09:24.641Z,15.90
2019-04-11T14:10:31.476Z,15.90
2019-04-11T14:11:35.584Z,15.90
2019-04-11T14:12:39.829Z,16.00
2019-04-11T14:13:44.559Z,16.10
2019-04-11T14:15:09.916Z,16.20
2019-04-11T14:16:16.961Z,16.00
2019-04-11T14:17:31.098Z,15.80
2019-04-11T14:18:46.797Z,15.70
2019-04-11T14:20:14.624Z,15.70
2019-04-11T14:21:20.466Z,15.70
2019-04-11T14:22:29.242Z,15.60
2019-04-11T14:23:52.512Z,15.50
2019-04-11T14:25:15.670Z,15.40
2019-04-11T14:26:33.475Z,15.50
2019-04-11T14:27:37.703Z,15.70
2019-04-11T14:29:13.135Z,15.80
2019-04-11T14:30:52.578Z,15.90
2019-04-11T14:32:08.787Z,15.90
2019-04-11T14:33:12.965Z,15.80
2019-04-11T14:34:39.383Z,15.60
2019-04-11T14:35:57.826Z,15.50
2019-04-11T14:37:20.992Z,15.50
2019-04-11T14:38:25.287Z,15.30
2019-04-11T14:39:32.360Z,15.20
2019-04-11T14:40:47.619Z,15.10
2019-04-11T14:42:11.740Z,14.90
2019-04-11T14:43:36.748Z,14.80
2019-04-11T14:44:41.024Z,14.70
2019-04-11T14:46:16.285Z,14.80
2019-04-11T14:47:39.176Z,14.60
2019-04-11T14:48:45.859Z,14.30
2019-04-11T14:49:53.618Z,14.20
2019-04-11T14:51:23.847Z,14.20
2019-04-11T14:52:47.269Z,14.30
2019-04-11T14:54:03.187Z,14.50
2019-04-11T14:55:08.690Z,14.60
2019-04-11T14:56:13.187Z,14.60
2019-04-11T14:57:46.868Z,14.60
2019-04-11T14:59:08.975Z,14.60
2019-04-11T15:00:40.642Z,14.60
2019-04-11T15:01:46.850Z,14.60
2019-04-11T15:03:08.875Z,14.50
2019-04-11T15:04:31.234Z,14.50
2019-04-11T15:06:00.243Z,14.30
2019-04-11T15:07:04.479Z,14.20
2019-04-11T15:08:14.902Z,14.10
2019-04-11T15:09:37.688Z,14.00
2019-04-11T15:11:01.433Z,13.90
2019-04-11T15:12:17.925Z,13.90
2019-04-11T15:13:25.507Z,14.00
2019-04-11T15:14:49.577Z,14.00
2019-04-11T15:16:11.043Z,14.10
2019-04-11T15:17:24.255Z,14.10
2019-04-11T15:18:31.169Z,14.00
2019-04-11T15:19:35.572Z,14.00
2019-04-11T15:20:57.415Z,14.10
2019-04-11T15:22:19.625Z,14.00
2019-04-11T15:23:48.812Z,13.90
2019-04-11T15:24:55.621Z,14.00
2019-04-11T15:26:24.712Z,14.00
2019-04-11T15:27:46.560Z,14.10
2019-04-11T15:29:13.731Z,14.20
2019-04-11T15:30:18.540Z,14.20
2019-04-11T15:31:39.537Z,14.10
2019-04-11T15:32:58.888Z,14.10
2019-04-11T15:34:20.931Z,14.10
2019-04-11T15:35:25.197Z,14.00
2019-04-11T15:36:29.405Z,13.80
2019-04-11T15:37:51.483Z,13.80
2019-04-11T15:39:13.706Z,13.80
2019-04-11T15:40:29.463Z,13.60
2019-04-11T15:41:33.739Z,13.60
2019-04-11T15:42:55.600Z,13.60
2019-04-11T15:44:36.880Z,13.60
2019-04-11T15:45:54.661Z,13.50
2019-04-11T15:47:00.860Z,13.40
2019-04-11T15:48:23.831Z,13.30
2019-04-11T15:50:00.723Z,13.30
2019-04-11T15:51:24.211Z,13.50
2019-04-11T15:52:28.420Z,13.60
2019-04-11T15:53:45.241Z,13.50
2019-04-11T15:55:07.788Z,13.60